sensor_id;sensor_type;location;lat;lon;timestamp;pressure;altitude;pressure_sealevel;temperature;humidity
43436;BME280;36399;51.444;-2.018;2024-01-27T00:02:04;102608.44;;;-0.19;100.00
43436;BME280;36399;51.444;-2.018;2024-01-27T00:04:30;102616.81;;;-0.22;100.00
43436;BME280;36399;51.444;-2.018;2024-01-27T00:06:56;102618.59;;;-0.02;100.00
43436;BME280;36399;51.444;-2.018;2024-01-27T00:09:22;102621.16;;;-0.02;100.00
43436;BME280;36399;51.444;-2.018;2024-01-27T00:11:48;102627.13;;;-0.22;100.00
43436;BME280;36399;51.444;-2.018;2024-01-27T00:14:14;102632.03;;;-0.25;100.00
43436;BME280;36399;51.444;-2.018;2024-01-27T00:16:40;102629.16;;;-0.28;100.00
43436;BME280;36399;51.444;-2.018;2024-01-27T00:19:06;102629.88;;;-0.39;100.00
43436;BME280;36399;51.444;-2.018;2024-01-27T00:21:32;102629.34;;;-0.54;100.00
43436;BME280;36399;51.444;-2.018;2024-01-27T00:23:58;102619.00;;;-0.45;100.00
43436;BME280;36399;51.444;-2.018;2024-01-27T00:26:27;102603.44;;;-0.37;100.00
43436;BME280;36399;51.444;-2.018;2024-01-27T00:28:53;102598.94;;;-0.10;100.00
43436;BME280;36399;51.444;-2.018;2024-01-27T00:31:19;102599.69;;;0.08;100.00
43436;BME280;36399;51.444;-2.018;2024-01-27T00:33:45;102593.97;;;0.30;100.00
43436;BME280;36399;51.444;-2.018;2024-01-27T00:36:11;102596.84;;;0.44;100.00
43436;BME280;36399;51.444;-2.018;2024-01-27T00:38:38;102597.75;;;0.44;100.00
43436;BME280;36399;51.444;-2.018;2024-01-27T00:41:04;102595.59;;;0.20;100.00
43436;BME280;36399;51.444;-2.018;2024-01-27T00:43:30;102589.25;;;0.16;100.00
43436;BME280;36399;51.444;-2.018;2024-01-27T00:45:56;102586.03;;;0.19;100.00
43436;BME280;36399;51.444;-2.018;2024-01-27T00:48:22;102579.63;;;0.34;100.00
43436;BME280;36399;51.444;-2.018;2024-01-27T00:50:48;102586.97;;;0.69;100.00
43436;BME280;36399;51.444;-2.018;2024-01-27T00:53:14;102577.69;;;0.91;100.00
43436;BME280;36399;51.444;-2.018;2024-01-27T00:55:40;102578.72;;;1.03;100.00
43436;BME280;36399;51.444;-2.018;2024-01-27T00:58:07;102569.28;;;1.04;100.00
43436;BME280;36399;51.444;-2.018;2024-01-27T01:00:33;102565.94;;;1.05;100.00
43436;BME280;36399;51.444;-2.018;2024-01-27T01:02:59;102582.09;;;1.12;100.00
43436;BME280;36399;51.444;-2.018;2024-01-27T01:05:24;102572.13;;;1.27;100.00
43436;BME280;36399;51.444;-2.018;2024-01-27T01:07:50;102570.72;;;1.31;100.00
43436;BME280;36399;51.444;-2.018;2024-01-27T01:10:16;102571.47;;;1.40;100.00
43436;BME280;36399;51.444;-2.018;2024-01-27T01:12:42;102569.25;;;1.44;100.00
43436;BME280;36399;51.444;-2.018;2024-01-27T01:15:08;102557.47;;;1.58;100.00
43436;BME280;36399;51.444;-2.018;2024-01-27T01:17:34;102563.53;;;1.69;100.00
43436;BME280;36399;51.444;-2.018;2024-01-27T01:20:01;102569.09;;;1.73;100.00
43436;BME280;36399;51.444;-2.018;2024-01-27T01:22:27;102572.72;;;1.55;100.00
43436;BME280;36399;51.444;-2.018;2024-01-27T01:24:53;102564.22;;;1.46;100.00
43436;BME280;36399;51.444;-2.018;2024-01-27T01:27:19;102570.06;;;1.33;100.00
43436;BME280;36399;51.444;-2.018;2024-01-27T01:29:46;102558.94;;;1.24;100.00
43436;BME280;36399;51.444;-2.018;2024-01-27T01:32:12;102555.72;;;1.16;100.00
43436;BME280;36399;51.444;-2.018;2024-01-27T01:34:39;102561.50;;;1.04;100.00
43436;BME280;36399;51.444;-2.018;2024-01-27T01:37:04;102572.63;;;0.82;100.00
43436;BME280;36399;51.444;-2.018;2024-01-27T01:39:30;102572.22;;;0.68;100.00
43436;BME280;36399;51.444;-2.018;2024-01-27T01:41:56;102573.66;;;0.64;100.00
43436;BME280;36399;51.444;-2.018;2024-01-27T01:44:25;102568.88;;;0.69;100.00
43436;BME280;36399;51.444;-2.018;2024-01-27T01:46:55;102544.59;;;0.87;100.00
43436;BME280;36399;51.444;-2.018;2024-01-27T01:49:21;102544.59;;;1.07;100.00
43436;BME280;36399;51.444;-2.018;2024-01-27T01:51:48;102543.31;;;1.12;100.00
43436;BME280;36399;51.444;-2.018;2024-01-27T01:54:14;102548.59;;;1.24;100.00
43436;BME280;36399;51.444;-2.018;2024-01-27T01:56:42;102541.22;;;1.29;100.00
43436;BME280;36399;51.444;-2.018;2024-01-27T01:59:08;102537.34;;;1.23;100.00
43436;BME280;36399;51.444;-2.018;2024-01-27T02:01:34;102554.69;;;1.14;100.00
43436;BME280;36399;51.444;-2.018;2024-01-27T02:04:00;102562.72;;;1.07;100.00
43436;BME280;36399;51.444;-2.018;2024-01-27T02:06:26;102573.81;;;0.96;100.00
43436;BME280;36399;51.444;-2.018;2024-01-27T02:08:52;102580.78;;;0.87;100.00
43436;BME280;36399;51.444;-2.018;2024-01-27T02:11:18;102578.19;;;0.77;100.00
43436;BME280;36399;51.444;-2.018;2024-01-27T02:13:44;102572.00;;;0.95;100.00
43436;BME280;36399;51.444;-2.018;2024-01-27T02:16:10;102551.81;;;1.01;100.00
43436;BME280;36399;51.444;-2.018;2024-01-27T02:18:36;102551.84;;;1.11;100.00
43436;BME280;36399;51.444;-2.018;2024-01-27T02:21:02;102551.31;;;1.15;100.00
43436;BME280;36399;51.444;-2.018;2024-01-27T02:23:28;102554.94;;;1.27;100.00
43436;BME280;36399;51.444;-2.018;2024-01-27T02:25:53;102553.66;;;1.22;100.00
43436;BME280;36399;51.444;-2.018;2024-01-27T02:28:19;102545.00;;;1.12;100.00
43436;BME280;36399;51.444;-2.018;2024-01-27T02:30:45;102546.38;;;0.98;100.00
43436;BME280;36399;51.444;-2.018;2024-01-27T02:33:11;102545.63;;;0.99;100.00
43436;BME280;36399;51.444;-2.018;2024-01-27T02:35:37;102542.03;;;1.07;100.00
43436;BME280;36399;51.444;-2.018;2024-01-27T02:38:03;102549.50;;;1.24;100.00
43436;BME280;36399;51.444;-2.018;2024-01-27T02:40:29;102550.94;;;1.11;100.00
43436;BME280;36399;51.444;-2.018;2024-01-27T02:42:55;102555.97;;;1.19;100.00
43436;BME280;36399;51.444;-2.018;2024-01-27T02:45:21;102549.91;;;1.19;100.00
43436;BME280;36399;51.444;-2.018;2024-01-27T02:47:47;102558.31;;;1.06;100.00
43436;BME280;36399;51.444;-2.018;2024-01-27T02:50:13;102559.88;;;1.04;100.00
43436;BME280;36399;51.444;-2.018;2024-01-27T02:52:39;102561.13;;;0.99;100.00
43436;BME280;36399;51.444;-2.018;2024-01-27T02:55:05;102561.91;;;0.88;100.00
43436;BME280;36399;51.444;-2.018;2024-01-27T02:57:31;102559.19;;;0.86;100.00
43436;BME280;36399;51.444;-2.018;2024-01-27T02:59:58;102547.97;;;1.06;100.00
43436;BME280;36399;51.444;-2.018;2024-01-27T03:02:23;102541.25;;;1.08;100.00
43436;BME280;36399;51.444;-2.018;2024-01-27T03:04:49;102536.59;;;1.04;100.00
43436;BME280;36399;51.444;-2.018;2024-01-27T03:07:15;102543.41;;;1.04;100.00
43436;BME280;36399;51.444;-2.018;2024-01-27T03:09:41;102531.00;;;1.00;100.00
43436;BME280;36399;51.444;-2.018;2024-01-27T03:12:07;102530.38;;;1.12;100.00
43436;BME280;36399;51.444;-2.018;2024-01-27T03:14:33;102535.81;;;1.15;100.00
43436;BME280;36399;51.444;-2.018;2024-01-27T03:16:59;102541.50;;;1.11;100.00
43436;BME280;36399;51.444;-2.018;2024-01-27T03:19:25;102549.78;;;1.07;100.00
43436;BME280;36399;51.444;-2.018;2024-01-27T03:21:51;102533.59;;;1.00;100.00
43436;BME280;36399;51.444;-2.018;2024-01-27T03:24:17;102529.31;;;1.00;100.00
43436;BME280;36399;51.444;-2.018;2024-01-27T03:26:43;102525.84;;;1.00;100.00
43436;BME280;36399;51.444;-2.018;2024-01-27T03:29:09;102527.78;;;1.12;100.00
43436;BME280;36399;51.444;-2.018;2024-01-27T03:31:35;102528.28;;;1.18;100.00
43436;BME280;36399;51.444;-2.018;2024-01-27T03:34:02;102536.59;;;1.14;100.00
43436;BME280;36399;51.444;-2.018;2024-01-27T03:36:28;102531.81;;;1.09;100.00
43436;BME280;36399;51.444;-2.018;2024-01-27T03:38:56;102528.19;;;1.07;100.00
43436;BME280;36399;51.444;-2.018;2024-01-27T03:41:22;102531.53;;;1.06;100.00
43436;BME280;36399;51.444;-2.018;2024-01-27T03:43:48;102530.34;;;1.02;100.00
43436;BME280;36399;51.444;-2.018;2024-01-27T03:46:14;102529.44;;;1.02;100.00
43436;BME280;36399;51.444;-2.018;2024-01-27T03:48:40;102527.53;;;1.09;100.00
43436;BME280;36399;51.444;-2.018;2024-01-27T03:51:06;102523.78;;;1.16;100.00
43436;BME280;36399;51.444;-2.018;2024-01-27T03:53:33;102517.81;;;1.17;100.00
43436;BME280;36399;51.444;-2.018;2024-01-27T03:55:59;102523.47;;;1.33;100.00
43436;BME280;36399;51.444;-2.018;2024-01-27T03:58:28;102518.81;;;1.39;100.00
43436;BME280;36399;51.444;-2.018;2024-01-27T04:00:54;102515.56;;;1.42;100.00
43436;BME280;36399;51.444;-2.018;2024-01-27T04:03:20;102513.22;;;1.45;100.00
43436;BME280;36399;51.444;-2.018;2024-01-27T04:05:46;102498.09;;;1.39;100.00
43436;BME280;36399;51.444;-2.018;2024-01-27T04:08:12;102501.47;;;1.38;100.00
43436;BME280;36399;51.444;-2.018;2024-01-27T04:10:38;102503.94;;;1.37;100.00
43436;BME280;36399;51.444;-2.018;2024-01-27T04:13:04;102510.56;;;1.23;100.00
43436;BME280;36399;51.444;-2.018;2024-01-27T04:15:33;102493.63;;;1.16;100.00
43436;BME280;36399;51.444;-2.018;2024-01-27T04:18:05;102501.28;;;1.05;100.00
43436;BME280;36399;51.444;-2.018;2024-01-27T04:20:34;102506.16;;;1.02;100.00
43436;BME280;36399;51.444;-2.018;2024-01-27T04:23:00;102505.00;;;0.98;100.00
43436;BME280;36399;51.444;-2.018;2024-01-27T04:25:26;102501.53;;;0.87;100.00
43436;BME280;36399;51.444;-2.018;2024-01-27T04:27:52;102504.25;;;0.79;100.00
43436;BME280;36399;51.444;-2.018;2024-01-27T04:30:19;102504.75;;;0.85;100.00
43436;BME280;36399;51.444;-2.018;2024-01-27T04:32:45;102499.34;;;0.72;100.00
43436;BME280;36399;51.444;-2.018;2024-01-27T04:35:11;102486.16;;;0.69;100.00
43436;BME280;36399;51.444;-2.018;2024-01-27T04:37:38;102490.03;;;0.74;100.00
43436;BME280;36399;51.444;-2.018;2024-01-27T04:40:05;102507.63;;;0.68;100.00
43436;BME280;36399;51.444;-2.018;2024-01-27T04:42:34;102506.97;;;0.60;100.00
43436;BME280;36399;51.444;-2.018;2024-01-27T04:45:00;102509.91;;;0.44;100.00
43436;BME280;36399;51.444;-2.018;2024-01-27T04:47:26;102514.78;;;0.41;100.00
43436;BME280;36399;51.444;-2.018;2024-01-27T04:49:53;102517.13;;;0.48;100.00
43436;BME280;36399;51.444;-2.018;2024-01-27T04:52:19;102514.41;;;0.47;100.00
43436;BME280;36399;51.444;-2.018;2024-01-27T04:54:45;102514.28;;;0.45;100.00
43436;BME280;36399;51.444;-2.018;2024-01-27T04:57:11;102518.47;;;0.53;100.00
43436;BME280;36399;51.444;-2.018;2024-01-27T04:59:37;102509.28;;;0.57;100.00
43436;BME280;36399;51.444;-2.018;2024-01-27T05:02:03;102481.22;;;0.51;100.00
43436;BME280;36399;51.444;-2.018;2024-01-27T05:04:29;102478.25;;;0.47;100.00
43436;BME280;36399;51.444;-2.018;2024-01-27T05:06:55;102479.84;;;0.55;100.00
43436;BME280;36399;51.444;-2.018;2024-01-27T05:09:21;102467.81;;;0.55;100.00
43436;BME280;36399;51.444;-2.018;2024-01-27T05:11:48;102483.31;;;0.66;100.00
43436;BME280;36399;51.444;-2.018;2024-01-27T05:14:14;102494.31;;;0.73;100.00
43436;BME280;36399;51.444;-2.018;2024-01-27T05:16:40;102505.03;;;0.68;100.00
43436;BME280;36399;51.444;-2.018;2024-01-27T05:19:06;102509.81;;;0.63;100.00
43436;BME280;36399;51.444;-2.018;2024-01-27T05:21:32;102522.22;;;0.57;100.00
43436;BME280;36399;51.444;-2.018;2024-01-27T05:23:58;102521.78;;;0.42;100.00
43436;BME280;36399;51.444;-2.018;2024-01-27T05:26:24;102517.25;;;0.50;100.00
43436;BME280;36399;51.444;-2.018;2024-01-27T05:28:50;102521.19;;;0.65;100.00
43436;BME280;36399;51.444;-2.018;2024-01-27T05:31:16;102514.31;;;0.55;100.00
43436;BME280;36399;51.444;-2.018;2024-01-27T05:33:42;102518.69;;;0.46;100.00
43436;BME280;36399;51.444;-2.018;2024-01-27T05:36:08;102514.53;;;0.48;100.00
43436;BME280;36399;51.444;-2.018;2024-01-27T05:38:34;102516.34;;;0.49;100.00
43436;BME280;36399;51.444;-2.018;2024-01-27T05:41:01;102506.78;;;0.48;100.00
43436;BME280;36399;51.444;-2.018;2024-01-27T05:43:27;102498.94;;;0.57;100.00
43436;BME280;36399;51.444;-2.018;2024-01-27T05:45:53;102475.56;;;0.55;100.00
43436;BME280;36399;51.444;-2.018;2024-01-27T05:48:19;102482.53;;;0.56;100.00
43436;BME280;36399;51.444;-2.018;2024-01-27T05:50:55;102479.97;;;0.56;100.00
43436;BME280;36399;51.444;-2.018;2024-01-27T05:53:22;102470.75;;;0.50;100.00
43436;BME280;36399;51.444;-2.018;2024-01-27T05:55:48;102470.53;;;0.57;100.00
43436;BME280;36399;51.444;-2.018;2024-01-27T05:58:13;102472.06;;;0.55;100.00
43436;BME280;36399;51.444;-2.018;2024-01-27T06:00:39;102483.03;;;0.42;100.00
43436;BME280;36399;51.444;-2.018;2024-01-27T06:03:05;102487.59;;;0.55;100.00
43436;BME280;36399;51.444;-2.018;2024-01-27T06:05:31;102481.25;;;0.72;100.00
43436;BME280;36399;51.444;-2.018;2024-01-27T06:07:57;102482.03;;;0.81;100.00
43436;BME280;36399;51.444;-2.018;2024-01-27T06:10:23;102481.88;;;0.89;100.00
43436;BME280;36399;51.444;-2.018;2024-01-27T06:12:50;102469.84;;;1.00;100.00
43436;BME280;36399;51.444;-2.018;2024-01-27T06:15:16;102460.66;;;1.04;100.00
43436;BME280;36399;51.444;-2.018;2024-01-27T06:17:42;102455.47;;;1.04;100.00
43436;BME280;36399;51.444;-2.018;2024-01-27T06:20:08;102462.34;;;0.93;100.00
43436;BME280;36399;51.444;-2.018;2024-01-27T06:22:35;102480.59;;;0.94;100.00
43436;BME280;36399;51.444;-2.018;2024-01-27T06:25:00;102487.44;;;0.94;100.00
43436;BME280;36399;51.444;-2.018;2024-01-27T06:27:26;102480.97;;;1.09;100.00
43436;BME280;36399;51.444;-2.018;2024-01-27T06:29:52;102464.91;;;1.03;100.00
43436;BME280;36399;51.444;-2.018;2024-01-27T06:32:18;102474.00;;;1.08;100.00
43436;BME280;36399;51.444;-2.018;2024-01-27T06:34:44;102483.28;;;0.96;100.00
43436;BME280;36399;51.444;-2.018;2024-01-27T06:37:10;102476.31;;;0.95;100.00
43436;BME280;36399;51.444;-2.018;2024-01-27T06:39:36;102473.47;;;1.02;100.00
43436;BME280;36399;51.444;-2.018;2024-01-27T06:42:02;102476.47;;;1.07;100.00
43436;BME280;36399;51.444;-2.018;2024-01-27T06:44:28;102476.59;;;1.08;100.00
43436;BME280;36399;51.444;-2.018;2024-01-27T06:46:55;102459.50;;;1.00;100.00
43436;BME280;36399;51.444;-2.018;2024-01-27T06:49:21;102461.31;;;1.01;100.00
43436;BME280;36399;51.444;-2.018;2024-01-27T06:51:47;102465.59;;;0.90;100.00
43436;BME280;36399;51.444;-2.018;2024-01-27T06:54:13;102455.66;;;0.85;100.00
43436;BME280;36399;51.444;-2.018;2024-01-27T06:56:39;102460.81;;;0.75;100.00
43436;BME280;36399;51.444;-2.018;2024-01-27T06:59:05;102452.00;;;0.93;100.00
43436;BME280;36399;51.444;-2.018;2024-01-27T07:01:31;102447.22;;;0.98;100.00
43436;BME280;36399;51.444;-2.018;2024-01-27T07:03:56;102460.28;;;0.99;100.00
43436;BME280;36399;51.444;-2.018;2024-01-27T07:06:22;102455.63;;;0.95;100.00
43436;BME280;36399;51.444;-2.018;2024-01-27T07:08:48;102442.72;;;1.05;100.00
43436;BME280;36399;51.444;-2.018;2024-01-27T07:11:14;102447.31;;;1.19;100.00
43436;BME280;36399;51.444;-2.018;2024-01-27T07:13:43;102450.78;;;1.30;100.00
43436;BME280;36399;51.444;-2.018;2024-01-27T07:16:09;102450.88;;;1.42;100.00
43436;BME280;36399;51.444;-2.018;2024-01-27T07:18:35;102440.94;;;1.36;100.00
43436;BME280;36399;51.444;-2.018;2024-01-27T07:21:01;102447.56;;;1.22;100.00
43436;BME280;36399;51.444;-2.018;2024-01-27T07:23:28;102449.38;;;1.23;100.00
43436;BME280;36399;51.444;-2.018;2024-01-27T07:25:54;102450.13;;;1.33;100.00
43436;BME280;36399;51.444;-2.018;2024-01-27T07:28:20;102441.06;;;1.38;100.00
43436;BME280;36399;51.444;-2.018;2024-01-27T07:30:46;102453.22;;;1.39;100.00
43436;BME280;36399;51.444;-2.018;2024-01-27T07:33:12;102445.41;;;1.49;100.00
43436;BME280;36399;51.444;-2.018;2024-01-27T07:35:38;102444.88;;;1.53;100.00
43436;BME280;36399;51.444;-2.018;2024-01-27T07:38:03;102436.88;;;1.50;100.00
43436;BME280;36399;51.444;-2.018;2024-01-27T07:40:29;102439.44;;;1.50;100.00
43436;BME280;36399;51.444;-2.018;2024-01-27T07:42:55;102438.97;;;1.44;100.00
43436;BME280;36399;51.444;-2.018;2024-01-27T07:45:21;102434.56;;;1.43;100.00
43436;BME280;36399;51.444;-2.018;2024-01-27T07:47:47;102451.13;;;1.45;100.00
43436;BME280;36399;51.444;-2.018;2024-01-27T07:50:13;102461.47;;;1.45;100.00
43436;BME280;36399;51.444;-2.018;2024-01-27T07:52:39;102450.38;;;1.36;100.00
43436;BME280;36399;51.444;-2.018;2024-01-27T07:55:05;102449.72;;;1.38;100.00
43436;BME280;36399;51.444;-2.018;2024-01-27T07:57:31;102463.31;;;1.36;100.00
43436;BME280;36399;51.444;-2.018;2024-01-27T07:59:58;102461.47;;;1.45;100.00
43436;BME280;36399;51.444;-2.018;2024-01-27T08:02:24;102461.47;;;1.45;100.00
43436;BME280;36399;51.444;-2.018;2024-01-27T08:04:52;102454.38;;;1.42;100.00
43436;BME280;36399;51.444;-2.018;2024-01-27T08:07:17;102465.63;;;1.43;100.00
43436;BME280;36399;51.444;-2.018;2024-01-27T08:09:43;102468.69;;;1.49;100.00
43436;BME280;36399;51.444;-2.018;2024-01-27T08:12:10;102454.56;;;1.55;100.00
43436;BME280;36399;51.444;-2.018;2024-01-27T08:14:36;102452.88;;;1.56;100.00
43436;BME280;36399;51.444;-2.018;2024-01-27T08:17:02;102457.03;;;1.54;100.00
43436;BME280;36399;51.444;-2.018;2024-01-27T08:19:31;102459.38;;;1.61;100.00
43436;BME280;36399;51.444;-2.018;2024-01-27T08:21:57;102463.47;;;1.69;100.00
43436;BME280;36399;51.444;-2.018;2024-01-27T08:24:24;102463.88;;;1.64;100.00
43436;BME280;36399;51.444;-2.018;2024-01-27T08:26:50;102463.47;;;1.69;100.00
43436;BME280;36399;51.444;-2.018;2024-01-27T08:29:16;102461.91;;;1.71;100.00
43436;BME280;36399;51.444;-2.018;2024-01-27T08:31:42;102467.56;;;1.77;100.00
43436;BME280;36399;51.444;-2.018;2024-01-27T08:34:09;102457.47;;;1.80;100.00
43436;BME280;36399;51.444;-2.018;2024-01-27T08:36:38;102460.91;;;1.91;100.00
43436;BME280;36399;51.444;-2.018;2024-01-27T08:39:04;102462.53;;;2.01;100.00
43436;BME280;36399;51.444;-2.018;2024-01-27T08:41:33;102468.47;;;2.10;100.00
43436;BME280;36399;51.444;-2.018;2024-01-27T08:43:59;102464.78;;;2.18;100.00
43436;BME280;36399;51.444;-2.018;2024-01-27T08:46:25;102462.00;;;2.27;100.00
43436;BME280;36399;51.444;-2.018;2024-01-27T08:48:51;102458.66;;;2.39;100.00
43436;BME280;36399;51.444;-2.018;2024-01-27T08:51:17;102461.41;;;2.52;100.00
43436;BME280;36399;51.444;-2.018;2024-01-27T08:53:44;102447.44;;;2.50;100.00
43436;BME280;36399;51.444;-2.018;2024-01-27T08:56:17;102454.25;;;2.60;100.00
43436;BME280;36399;51.444;-2.018;2024-01-27T08:58:44;102458.75;;;2.63;100.00
43436;BME280;36399;51.444;-2.018;2024-01-27T09:01:10;102455.16;;;2.61;100.00
43436;BME280;36399;51.444;-2.018;2024-01-27T09:03:39;102450.19;;;2.64;100.00
43436;BME280;36399;51.444;-2.018;2024-01-27T09:06:06;102449.19;;;2.62;100.00
43436;BME280;36399;51.444;-2.018;2024-01-27T09:08:35;102457.88;;;2.74;100.00
43436;BME280;36399;51.444;-2.018;2024-01-27T09:11:02;102444.59;;;2.81;100.00
43436;BME280;36399;51.444;-2.018;2024-01-27T09:13:28;102456.34;;;2.88;100.00
43436;BME280;36399;51.444;-2.018;2024-01-27T09:15:56;102468.50;;;2.89;100.00
43436;BME280;36399;51.444;-2.018;2024-01-27T09:18:22;102468.31;;;2.97;100.00
43436;BME280;36399;51.444;-2.018;2024-01-27T09:20:48;102467.53;;;3.10;100.00
43436;BME280;36399;51.444;-2.018;2024-01-27T09:23:14;102469.25;;;3.21;100.00
43436;BME280;36399;51.444;-2.018;2024-01-27T09:25:41;102479.19;;;3.27;100.00
43436;BME280;36399;51.444;-2.018;2024-01-27T09:28:07;102472.41;;;3.29;100.00
43436;BME280;36399;51.444;-2.018;2024-01-27T09:30:33;102483.47;;;3.38;100.00
43436;BME280;36399;51.444;-2.018;2024-01-27T09:32:59;102488.88;;;3.41;100.00
43436;BME280;36399;51.444;-2.018;2024-01-27T09:35:25;102493.84;;;3.49;100.00
43436;BME280;36399;51.444;-2.018;2024-01-27T09:37:50;102492.28;;;3.40;100.00
43436;BME280;36399;51.444;-2.018;2024-01-27T09:40:16;102491.38;;;3.51;100.00
43436;BME280;36399;51.444;-2.018;2024-01-27T09:42:52;102488.22;;;3.55;100.00
43436;BME280;36399;51.444;-2.018;2024-01-27T09:45:20;102484.94;;;3.69;100.00
43436;BME280;36399;51.444;-2.018;2024-01-27T09:47:48;102476.44;;;3.84;100.00
43436;BME280;36399;51.444;-2.018;2024-01-27T09:50:17;102490.31;;;3.96;100.00
43436;BME280;36399;51.444;-2.018;2024-01-27T09:52:43;102482.84;;;4.00;100.00
43436;BME280;36399;51.444;-2.018;2024-01-27T09:55:09;102484.53;;;4.00;100.00
43436;BME280;36399;51.444;-2.018;2024-01-27T09:57:39;102483.38;;;4.08;100.00
43436;BME280;36399;51.444;-2.018;2024-01-27T10:00:11;102489.03;;;4.14;100.00
43436;BME280;36399;51.444;-2.018;2024-01-27T10:02:41;102491.94;;;4.30;100.00
43436;BME280;36399;51.444;-2.018;2024-01-27T10:05:08;102489.81;;;4.50;100.00
43436;BME280;36399;51.444;-2.018;2024-01-27T10:07:34;102478.03;;;4.55;100.00
43436;BME280;36399;51.444;-2.018;2024-01-27T10:10:00;102472.66;;;4.65;100.00
43436;BME280;36399;51.444;-2.018;2024-01-27T10:12:28;102467.38;;;5.01;100.00
43436;BME280;36399;51.444;-2.018;2024-01-27T10:15:04;102465.22;;;5.21;100.00
43436;BME280;36399;51.444;-2.018;2024-01-27T10:17:46;102473.22;;;5.37;100.00
43436;BME280;36399;51.444;-2.018;2024-01-27T10:20:42;102469.03;;;5.39;100.00
43436;BME280;36399;51.444;-2.018;2024-01-27T10:23:12;102467.31;;;5.39;100.00
43436;BME280;36399;51.444;-2.018;2024-01-27T10:25:39;102465.50;;;5.52;100.00
43436;BME280;36399;51.444;-2.018;2024-01-27T10:28:06;102462.41;;;5.57;100.00
43436;BME280;36399;51.444;-2.018;2024-01-27T10:30:34;102456.19;;;5.82;100.00
43436;BME280;36399;51.444;-2.018;2024-01-27T10:33:00;102445.94;;;5.98;100.00
43436;BME280;36399;51.444;-2.018;2024-01-27T10:35:27;102447.28;;;6.19;100.00
43436;BME280;36399;51.444;-2.018;2024-01-27T10:37:54;102447.69;;;6.12;100.00
43436;BME280;36399;51.444;-2.018;2024-01-27T10:40:20;102437.81;;;6.35;100.00
43436;BME280;36399;51.444;-2.018;2024-01-27T10:43:00;102428.66;;;6.41;100.00
43436;BME280;36399;51.444;-2.018;2024-01-27T10:45:27;102440.06;;;6.28;100.00
43436;BME280;36399;51.444;-2.018;2024-01-27T10:47:54;102436.69;;;6.59;100.00
43436;BME280;36399;51.444;-2.018;2024-01-27T10:50:23;102434.25;;;6.62;100.00
43436;BME280;36399;51.444;-2.018;2024-01-27T10:52:50;102427.03;;;6.43;100.00
43436;BME280;36399;51.444;-2.018;2024-01-27T10:55:17;102422.72;;;6.44;100.00
43436;BME280;36399;51.444;-2.018;2024-01-27T10:57:44;102427.06;;;6.58;100.00
43436;BME280;36399;51.444;-2.018;2024-01-27T11:00:12;102421.75;;;6.71;100.00
43436;BME280;36399;51.444;-2.018;2024-01-27T11:02:40;102425.19;;;6.70;100.00
43436;BME280;36399;51.444;-2.018;2024-01-27T11:05:10;102418.41;;;6.59;100.00
43436;BME280;36399;51.444;-2.018;2024-01-27T11:07:37;102411.75;;;6.49;100.00
43436;BME280;36399;51.444;-2.018;2024-01-27T11:10:04;102411.94;;;6.67;100.00
43436;BME280;36399;51.444;-2.018;2024-01-27T11:12:30;102410.69;;;6.75;100.00
43436;BME280;36399;51.444;-2.018;2024-01-27T11:14:56;102404.22;;;6.98;100.00
43436;BME280;36399;51.444;-2.018;2024-01-27T11:17:24;102402.38;;;7.41;100.00
43436;BME280;36399;51.444;-2.018;2024-01-27T11:19:50;102405.88;;;7.73;100.00
43436;BME280;36399;51.444;-2.018;2024-01-27T11:22:24;102412.22;;;7.62;100.00
43436;BME280;36399;51.444;-2.018;2024-01-27T11:27:36;102408.91;;;7.04;100.00
43436;BME280;36399;51.444;-2.018;2024-01-27T11:30:03;102400.78;;;7.14;100.00
43436;BME280;36399;51.444;-2.018;2024-01-27T11:32:30;102389.41;;;7.28;100.00
43436;BME280;36399;51.444;-2.018;2024-01-27T11:34:56;102388.34;;;7.24;100.00
43436;BME280;36399;51.444;-2.018;2024-01-27T11:37:24;102391.84;;;7.40;100.00
43436;BME280;36399;51.444;-2.018;2024-01-27T11:40:03;102390.34;;;7.59;100.00
43436;BME280;36399;51.444;-2.018;2024-01-27T11:42:31;102382.88;;;7.51;100.00
43436;BME280;36399;51.444;-2.018;2024-01-27T11:44:57;102389.78;;;7.34;100.00
43436;BME280;36399;51.444;-2.018;2024-01-27T11:47:22;102387.25;;;7.36;100.00
43436;BME280;36399;51.444;-2.018;2024-01-27T11:49:53;102375.56;;;7.76;100.00
43436;BME280;36399;51.444;-2.018;2024-01-27T11:52:20;102377.59;;;7.66;100.00
43436;BME280;36399;51.444;-2.018;2024-01-27T11:54:46;102381.56;;;7.90;100.00
43436;BME280;36399;51.444;-2.018;2024-01-27T11:57:12;102367.19;;;8.14;100.00
43436;BME280;36399;51.444;-2.018;2024-01-27T11:59:38;102369.19;;;8.35;100.00
43436;BME280;36399;51.444;-2.018;2024-01-27T12:02:04;102382.19;;;8.33;100.00
43436;BME280;36399;51.444;-2.018;2024-01-27T12:04:30;102379.44;;;8.32;100.00
43436;BME280;36399;51.444;-2.018;2024-01-27T12:06:56;102370.13;;;8.20;100.00
43436;BME280;36399;51.444;-2.018;2024-01-27T12:09:22;102372.09;;;8.24;100.00
43436;BME280;36399;51.444;-2.018;2024-01-27T12:11:48;102370.94;;;8.03;100.00
43436;BME280;36399;51.444;-2.018;2024-01-27T12:14:14;102374.13;;;8.14;100.00
43436;BME280;36399;51.444;-2.018;2024-01-27T12:16:40;102371.59;;;7.99;100.00
43436;BME280;36399;51.444;-2.018;2024-01-27T12:19:09;102362.69;;;7.96;100.00
43436;BME280;36399;51.444;-2.018;2024-01-27T12:21:36;102361.38;;;8.04;100.00
43436;BME280;36399;51.444;-2.018;2024-01-27T12:24:02;102361.28;;;8.18;100.00
43436;BME280;36399;51.444;-2.018;2024-01-27T12:26:37;102357.38;;;8.10;100.00
43436;BME280;36399;51.444;-2.018;2024-01-27T12:29:05;102348.25;;;8.35;100.00
43436;BME280;36399;51.444;-2.018;2024-01-27T12:31:31;102332.75;;;8.23;100.00
43436;BME280;36399;51.444;-2.018;2024-01-27T12:33:57;102330.06;;;8.21;100.00
43436;BME280;36399;51.444;-2.018;2024-01-27T12:36:24;102325.81;;;8.07;100.00
43436;BME280;36399;51.444;-2.018;2024-01-27T12:38:57;102316.91;;;8.20;100.00
43436;BME280;36399;51.444;-2.018;2024-01-27T12:41:25;102312.09;;;8.44;100.00